createdAt,value
2017-07-06T00:00:42.058Z,0
2017-07-06T00:01:52.331Z,0
2017-07-06T00:03:02.307Z,0
2017-07-06T00:04:11.943Z,0
2017-07-06T00:05:22.472Z,0
2017-07-06T00:06:32.423Z,0
2017-07-06T00:07:42.687Z,0
2017-07-06T00:08:52.943Z,0
2017-07-06T00:10:03.232Z,0
2017-07-06T00:11:13.475Z,0
2017-07-06T00:12:23.742Z,0
2017-07-06T00:13:33.692Z,0
2017-07-06T00:14:43.959Z,0
2017-07-06T00:15:54.247Z,0
2017-07-06T00:17:04.774Z,0
2017-07-06T00:18:14.739Z,0
2017-07-06T00:19:25.005Z,0
2017-07-06T00:20:34.962Z,0
2017-07-06T00:21:45.235Z,0
2017-07-06T00:22:55.437Z,0
2017-07-06T00:24:05.386Z,0
2017-07-06T00:25:14.696Z,0
2017-07-06T00:26:24.970Z,0
2017-07-06T00:27:35.246Z,0
2017-07-06T00:28:45.826Z,0
2017-07-06T00:29:55.793Z,0
2017-07-06T00:31:06.048Z,0
2017-07-06T00:32:15.371Z,0
2017-07-06T00:33:25.320Z,0
2017-07-06T00:34:35.512Z,0
2017-07-06T00:35:45.779Z,0
2017-07-06T00:36:55.728Z,0
2017-07-06T00:38:05.687Z,0
2017-07-06T00:39:15.339Z,0
2017-07-06T00:40:25.852Z,0
2017-07-06T00:41:35.798Z,0
2017-07-06T00:42:46.269Z,0
2017-07-06T00:43:55.900Z,0
2017-07-06T00:45:05.847Z,0
2017-07-06T00:46:15.726Z,0
2017-07-06T00:47:25.689Z,0
2017-07-06T00:48:35.941Z,0
2017-07-06T00:49:45.898Z,0
2017-07-06T00:50:55.847Z,0
2017-07-06T00:52:05.723Z,0
2017-07-06T00:53:15.999Z,0
2017-07-06T00:54:25.938Z,0
2017-07-06T00:55:36.200Z,0
2017-07-06T00:56:46.465Z,0
2017-07-06T00:57:57.000Z,0
2017-07-06T00:59:06.937Z,0
2017-07-06T01:00:16.897Z,0
2017-07-06T01:01:26.845Z,0
2017-07-06T01:02:36.796Z,0
2017-07-06T01:03:47.301Z,0
2017-07-06T01:04:57.580Z,0
2017-07-06T01:06:07.538Z,0
2017-07-06T01:07:17.485Z,0
2017-07-06T01:08:27.753Z,0
2017-07-06T01:09:37.963Z,0
2017-07-06T01:10:48.230Z,0
2017-07-06T01:11:58.169Z,0
2017-07-06T01:13:08.426Z,0
2017-07-06T01:14:18.684Z,0
2017-07-06T01:15:29.196Z,0
2017-07-06T01:16:39.158Z,0
2017-07-06T01:17:49.110Z,0
2017-07-06T01:18:59.057Z,0
2017-07-06T01:20:08.687Z,0
2017-07-06T01:21:18.889Z,0
2017-07-06T01:22:29.157Z,0
2017-07-06T01:23:39.430Z,0
2017-07-06T01:24:49.692Z,0
2017-07-06T01:25:59.647Z,0
2017-07-06T01:27:09.849Z,0
2017-07-06T01:28:20.123Z,0
2017-07-06T01:29:30.062Z,0
2017-07-06T01:30:40.336Z,0
2017-07-06T01:31:49.982Z,0
2017-07-06T01:33:00.510Z,0
2017-07-06T01:34:10.431Z,0
2017-07-06T01:35:20.388Z,0
2017-07-06T01:36:30.656Z,0
2017-07-06T01:37:40.918Z,0
2017-07-06T01:38:51.454Z,0
2017-07-06T01:40:01.715Z,0
2017-07-06T01:41:11.028Z,0
2017-07-06T01:42:20.965Z,0
2017-07-06T01:43:30.909Z,0
2017-07-06T01:44:41.429Z,0
2017-07-06T01:45:51.710Z,0
2017-07-06T01:47:01.983Z,0
2017-07-06T01:48:11.937Z,0
2017-07-06T01:49:22.205Z,0
2017-07-06T01:50:32.403Z,0
2017-07-06T01:51:42.350Z,0
2017-07-06T01:52:52.293Z,0
2017-07-06T01:54:01.924Z,0
2017-07-06T01:55:11.559Z,0
2017-07-06T01:56:22.079Z,0
2017-07-06T01:57:32.347Z,0
2017-07-06T01:58:41.982Z,0
2017-07-06T01:59:52.255Z,0
2017-07-06T02:01:02.201Z,0
2017-07-06T02:02:12.384Z,0
2017-07-06T02:03:22.348Z,0
2017-07-06T02:04:32.597Z,0
2017-07-06T02:05:42.549Z,4
2017-07-06T02:06:52.820Z,4
2017-07-06T02:08:03.332Z,4
2017-07-06T02:09:13.595Z,0
2017-07-06T02:10:23.852Z,4
2017-07-06T02:11:33.799Z,4
2017-07-06T02:12:44.064Z,8
2017-07-06T02:13:54.264Z,4
2017-07-06T02:15:03.580Z,8
2017-07-06T02:16:13.212Z,4
2017-07-06T02:17:23.196Z,8
2017-07-06T02:18:33.465Z,8
2017-07-06T02:19:43.981Z,8
2017-07-06T02:20:54.323Z,16
2017-07-06T02:22:04.579Z,16
2017-07-06T02:23:14.848Z,16
2017-07-06T02:24:25.110Z,20
2017-07-06T02:25:34.995Z,24
2017-07-06T02:26:45.263Z,28
2017-07-06T02:27:55.517Z,32
2017-07-06T02:29:05.469Z,32
2017-07-06T02:30:15.738Z,40
2017-07-06T02:31:25.626Z,44
2017-07-06T02:32:35.569Z,52
2017-07-06T02:33:45.204Z,56
2017-07-06T02:34:55.154Z,64
2017-07-06T02:36:05.094Z,72
2017-07-06T02:37:15.655Z,80
2017-07-06T02:38:25.619Z,92
2017-07-06T02:39:34.938Z,104
2017-07-06T02:40:45.196Z,116
2017-07-06T02:41:55.455Z,128
2017-07-06T02:43:05.634Z,140
2017-07-06T02:44:15.916Z,160
2017-07-06T02:45:25.873Z,176
2017-07-06T02:46:36.145Z,196
2017-07-06T02:47:45.772Z,216
2017-07-06T02:48:56.280Z,240
2017-07-06T02:50:06.239Z,268
2017-07-06T02:51:16.579Z,300
2017-07-06T02:52:26.829Z,332
2017-07-06T02:53:36.453Z,368
2017-07-06T02:54:46.959Z,408
2017-07-06T02:55:57.229Z,440
2017-07-06T02:57:07.478Z,484
2017-07-06T02:58:17.427Z,524
2017-07-06T02:59:27.703Z,572
2017-07-06T03:00:37.906Z,628
2017-07-06T03:01:48.228Z,676
2017-07-06T03:02:58.485Z,732
2017-07-06T03:04:08.107Z,788
2017-07-06T03:05:18.063Z,848
2017-07-06T03:06:28.588Z,904
2017-07-06T03:07:38.540Z,960
2017-07-06T03:08:48.818Z,1020
2017-07-06T03:09:59.080Z,1080
2017-07-06T03:11:09.358Z,1140
2017-07-06T03:12:19.233Z,1200
2017-07-06T03:13:28.851Z,1256
2017-07-06T03:14:39.133Z,1288
2017-07-06T03:15:49.396Z,1304
2017-07-06T03:16:59.339Z,1316
2017-07-06T03:18:09.548Z,1316
2017-07-06T03:19:19.810Z,1292
2017-07-06T03:20:30.069Z,1256
2017-07-06T03:21:40.056Z,1240
2017-07-06T03:22:50.333Z,1240
2017-07-06T03:24:00.837Z,1256
2017-07-06T03:25:10.788Z,1272
2017-07-06T03:26:21.055Z,1296
2017-07-06T03:27:31.337Z,1324
2017-07-06T03:28:41.607Z,1364
2017-07-06T03:29:51.804Z,1420
2017-07-06T03:31:02.064Z,1508
2017-07-06T03:32:12.015Z,1604
2017-07-06T03:33:22.305Z,1700
2017-07-06T03:34:32.582Z,1812
2017-07-06T03:35:43.078Z,1900
2017-07-06T03:36:53.025Z,1944
2017-07-06T03:38:02.981Z,2068
2017-07-06T03:39:13.252Z,2156
2017-07-06T03:40:23.525Z,2240
2017-07-06T03:41:34.046Z,2328
2017-07-06T03:42:44.013Z,2428
2017-07-06T03:43:53.967Z,2532
2017-07-06T03:45:03.916Z,2648
2017-07-06T03:46:13.561Z,2772
2017-07-06T03:47:23.760Z,2904
2017-07-06T03:48:33.705Z,3044
2017-07-06T03:49:43.970Z,3224
2017-07-06T03:50:53.606Z,3432
2017-07-06T03:52:03.882Z,3644
2017-07-06T03:53:14.118Z,3720
2017-07-06T03:54:23.742Z,3628
2017-07-06T03:55:33.366Z,3456
2017-07-06T03:56:43.615Z,3244
2017-07-06T03:57:53.569Z,3084
2017-07-06T03:59:03.781Z,3076
2017-07-06T04:00:14.054Z,3236
2017-07-06T04:01:24.326Z,3424
2017-07-06T04:02:34.273Z,3652
2017-07-06T04:03:44.221Z,3880
2017-07-06T04:04:54.112Z,4040
2017-07-06T04:06:03.739Z,4080
2017-07-06T04:07:13.691Z,4036
2017-07-06T04:08:23.635Z,4004
2017-07-06T04:09:33.596Z,4004
2017-07-06T04:10:44.111Z,4052
2017-07-06T04:11:54.388Z,4160
2017-07-06T04:13:04.024Z,4456
2017-07-06T04:14:14.293Z,4468
2017-07-06T04:15:24.233Z,4560
2017-07-06T04:16:34.452Z,4784
2017-07-06T04:17:44.421Z,5012
2017-07-06T04:18:54.381Z,5036
2017-07-06T04:20:04.315Z,4920
2017-07-06T04:21:14.269Z,5140
2017-07-06T04:22:24.825Z,5328
2017-07-06T04:23:35.081Z,5716
2017-07-06T04:24:44.411Z,5888
2017-07-06T04:25:54.364Z,5992
2017-07-06T04:27:04.333Z,6320
2017-07-06T04:28:14.547Z,6620
2017-07-06T04:29:24.499Z,6664
2017-07-06T04:30:34.447Z,6552
2017-07-06T04:31:44.393Z,6656
2017-07-06T04:32:54.660Z,6720
2017-07-06T04:34:05.175Z,6776
2017-07-06T04:35:15.443Z,6804
2017-07-06T04:36:25.724Z,6824
2017-07-06T04:37:35.680Z,6864
2017-07-06T04:38:45.621Z,7008
2017-07-06T04:39:56.137Z,7196
2017-07-06T04:41:06.416Z,7300
2017-07-06T04:42:16.359Z,7396
2017-07-06T04:43:25.997Z,7484
2017-07-06T04:44:35.955Z,7476
2017-07-06T04:45:45.835Z,7372
2017-07-06T04:46:55.783Z,7256
2017-07-06T04:48:06.024Z,7152
2017-07-06T04:49:16.044Z,7060
2017-07-06T04:50:26.001Z,7008
2017-07-06T04:51:37.029Z,7028
2017-07-06T04:52:46.973Z,7072
2017-07-06T04:53:56.912Z,7008
2017-07-06T04:55:06.842Z,6920
2017-07-06T04:56:17.117Z,6952
2017-07-06T04:57:27.044Z,7060
2017-07-06T04:58:36.675Z,7152
2017-07-06T04:59:46.948Z,7212
2017-07-06T05:00:56.893Z,7304
2017-07-06T05:02:06.837Z,7492
2017-07-06T05:03:17.351Z,7796
2017-07-06T05:04:27.606Z,8136
2017-07-06T05:05:37.574Z,8424
2017-07-06T05:06:47.530Z,8652
2017-07-06T05:07:57.801Z,8856
2017-07-06T05:09:07.689Z,9220
2017-07-06T05:10:17.645Z,9572
2017-07-06T05:11:27.926Z,9944
2017-07-06T05:12:38.209Z,10364
2017-07-06T05:13:48.492Z,10612
2017-07-06T05:14:59.015Z,10776
2017-07-06T05:16:08.663Z,10952
2017-07-06T05:17:18.614Z,11112
2017-07-06T05:18:28.593Z,11332
2017-07-06T05:19:37.920Z,11660
2017-07-06T05:20:48.135Z,11116
2017-07-06T05:21:58.078Z,10920
2017-07-06T05:23:08.020Z,10860
2017-07-06T05:24:17.955Z,10928
2017-07-06T05:25:28.215Z,11024
2017-07-06T05:26:38.425Z,11232
2017-07-06T05:27:48.377Z,11444
2017-07-06T05:28:58.651Z,11704
2017-07-06T05:30:08.302Z,11912
2017-07-06T05:31:17.950Z,12016
2017-07-06T05:32:28.466Z,12072
2017-07-06T05:33:38.413Z,12132
2017-07-06T05:34:48.045Z,12336
2017-07-06T05:35:58.327Z,12512
2017-07-06T05:37:07.966Z,12732
2017-07-06T05:38:18.485Z,12916
2017-07-06T05:39:28.132Z,12964
2017-07-06T05:40:38.081Z,12980
2017-07-06T05:41:48.343Z,12924
2017-07-06T05:42:58.309Z,12840
2017-07-06T05:44:08.824Z,12952
2017-07-06T05:45:18.789Z,13280
2017-07-06T05:46:28.425Z,13664
2017-07-06T05:47:38.690Z,14064
2017-07-06T05:48:48.318Z,14548
2017-07-06T05:49:58.520Z,15088
2017-07-06T05:51:08.794Z,15468
2017-07-06T05:52:18.774Z,15628
2017-07-06T05:53:29.099Z,15692
2017-07-06T05:54:39.402Z,15736
2017-07-06T05:55:49.612Z,15884
2017-07-06T05:56:59.570Z,15948
2017-07-06T05:58:09.537Z,16060
2017-07-06T05:59:19.848Z,16112
2017-07-06T06:00:29.826Z,16012
2017-07-06T06:01:40.586Z,15812
2017-07-06T06:02:50.864Z,15624
2017-07-06T06:04:01.160Z,15496
2017-07-06T06:05:11.449Z,15556
2017-07-06T06:06:21.422Z,15724
2017-07-06T06:07:31.631Z,15920
2017-07-06T06:08:41.922Z,16212
2017-07-06T06:09:51.894Z,16440
2017-07-06T06:11:01.848Z,16632
2017-07-06T06:12:12.110Z,16868
2017-07-06T06:13:22.627Z,17140
2017-07-06T06:14:32.593Z,17356
2017-07-06T06:15:42.881Z,17516
2017-07-06T06:16:53.195Z,17888
2017-07-06T06:18:03.158Z,18144
2017-07-06T06:19:13.714Z,18240
2017-07-06T06:20:23.674Z,18336
2017-07-06T06:21:33.967Z,18624
2017-07-06T06:22:44.248Z,18912
2017-07-06T06:23:54.197Z,19168
2017-07-06T06:25:04.721Z,19328
2017-07-06T06:26:15.011Z,19456
2017-07-06T06:27:25.312Z,19104
2017-07-06T06:28:35.289Z,18656
2017-07-06T06:29:45.245Z,18496
2017-07-06T06:30:55.463Z,18432
2017-07-06T06:32:05.749Z,18368
2017-07-06T06:33:15.719Z,18080
2017-07-06T06:34:26.033Z,17340
2017-07-06T06:35:36.305Z,16616
2017-07-06T06:36:46.536Z,16016
2017-07-06T06:37:56.824Z,15604
2017-07-06T06:39:07.129Z,15188
2017-07-06T06:40:17.408Z,14552
2017-07-06T06:41:27.064Z,14084
2017-07-06T06:42:37.655Z,13824
2017-07-06T06:43:46.987Z,13728
2017-07-06T06:44:57.266Z,13852
2017-07-06T06:46:07.527Z,14040
2017-07-06T06:47:17.801Z,14140
2017-07-06T06:48:28.607Z,14408
2017-07-06T06:49:38.583Z,14740
2017-07-06T06:50:48.861Z,15072
2017-07-06T06:51:58.845Z,15356
2017-07-06T06:53:08.814Z,15452
2017-07-06T06:54:19.046Z,16224
2017-07-06T06:55:29.360Z,17188
2017-07-06T06:56:39.783Z,17756
2017-07-06T06:57:49.417Z,18368
2017-07-06T06:58:59.376Z,18592
2017-07-06T07:00:09.894Z,18976
2017-07-06T07:01:20.172Z,19104
2017-07-06T07:02:30.135Z,19680
2017-07-06T07:03:40.132Z,21088
2017-07-06T07:04:50.089Z,23072
2017-07-06T07:06:00.685Z,25024
2017-07-06T07:07:10.970Z,25248
2017-07-06T07:08:20.966Z,26336
2017-07-06T07:09:31.254Z,27456
2017-07-06T07:10:41.518Z,27392
2017-07-06T07:11:52.125Z,26784
2017-07-06T07:13:02.401Z,27232
2017-07-06T07:14:12.723Z,27488
2017-07-06T07:15:23.001Z,27360
2017-07-06T07:16:32.645Z,27232
2017-07-06T07:17:42.861Z,26720
2017-07-06T07:18:52.823Z,26080
2017-07-06T07:20:03.104Z,24512
2017-07-06T07:21:13.389Z,23776
2017-07-06T07:22:23.677Z,23296
2017-07-06T07:23:34.193Z,22272
2017-07-06T07:24:43.830Z,21664
2017-07-06T07:25:54.117Z,20992
2017-07-06T07:27:04.079Z,20512
2017-07-06T07:28:14.069Z,19776
2017-07-06T07:29:24.303Z,19744
2017-07-06T07:30:34.571Z,19744
2017-07-06T07:31:44.857Z,19360
2017-07-06T07:32:54.808Z,18624
2017-07-06T07:34:04.439Z,18056
2017-07-06T07:35:14.322Z,17804
2017-07-06T07:36:24.288Z,16852
2017-07-06T07:37:34.564Z,15916
2017-07-06T07:38:44.531Z,16100
2017-07-06T07:39:54.825Z,16360
2017-07-06T07:41:04.799Z,17420
2017-07-06T07:42:15.093Z,18316
2017-07-06T07:43:25.370Z,19168
2017-07-06T07:44:35.667Z,19840
2017-07-06T07:45:45.971Z,21184
2017-07-06T07:46:56.548Z,21984
2017-07-06T07:48:06.855Z,22144
2017-07-06T07:49:16.823Z,22048
2017-07-06T07:50:27.114Z,22496
2017-07-06T07:51:37.086Z,23520
2017-07-06T07:52:46.974Z,25440
2017-07-06T07:53:56.951Z,26272
2017-07-06T07:55:07.234Z,27008
2017-07-06T07:56:17.195Z,27488
2017-07-06T07:57:27.136Z,26848
2017-07-06T07:58:37.330Z,25536
2017-07-06T07:59:47.622Z,24256
2017-07-06T08:00:57.286Z,22912
2017-07-06T08:02:07.559Z,21792
2017-07-06T08:03:17.558Z,20800
2017-07-06T08:04:28.163Z,20800
2017-07-06T08:05:38.472Z,20160
2017-07-06T08:06:48.455Z,19904
2017-07-06T08:07:58.735Z,20320
2017-07-06T08:09:08.698Z,20480
2017-07-06T08:10:18.918Z,20640
2017-07-06T08:11:28.940Z,20576
2017-07-06T08:12:38.581Z,20832
2017-07-06T08:13:48.562Z,21344
2017-07-06T08:14:58.841Z,21824
2017-07-06T08:16:09.051Z,21184
2017-07-06T08:17:19.374Z,20384
2017-07-06T08:18:29.647Z,20096
2017-07-06T08:19:39.918Z,20096
2017-07-06T08:20:50.209Z,20512
2017-07-06T08:22:00.797Z,20448
2017-07-06T08:23:10.434Z,20736
2017-07-06T08:24:20.737Z,21024
2017-07-06T08:25:30.936Z,21472
2017-07-06T08:26:40.568Z,21664
2017-07-06T08:27:50.807Z,21824
2017-07-06T08:29:01.089Z,22144
2017-07-06T08:30:11.038Z,22112
2017-07-06T08:31:21.330Z,22656
2017-07-06T08:32:31.623Z,23392
2017-07-06T08:33:41.871Z,24320
2017-07-06T08:34:52.178Z,24800
2017-07-06T08:36:02.890Z,24896
2017-07-06T08:37:12.964Z,25184
2017-07-06T08:38:23.250Z,33312
2017-07-06T08:39:33.794Z,38912
2017-07-06T08:40:43.438Z,40960
2017-07-06T08:41:53.735Z,48480
2017-07-06T08:43:04.025Z,54624
2017-07-06T08:44:13.696Z,55936
2017-07-06T08:45:24.221Z,54784
2017-07-06T08:46:34.429Z,56352
2017-07-06T08:47:44.410Z,52192
2017-07-06T08:48:54.704Z,51456
2017-07-06T08:50:04.989Z,49088
2017-07-06T08:51:15.532Z,56608
2017-07-06T08:52:25.820Z,58784
2017-07-06T08:53:35.793Z,55520
2017-07-06T08:54:46.069Z,57824
2017-07-06T08:55:56.039Z,58336
2017-07-06T08:57:06.271Z,60288
2017-07-06T08:58:15.609Z,65920
2017-07-06T08:59:25.877Z,64864
2017-07-06T09:00:35.905Z,68384
2017-07-06T09:01:45.902Z,69440
2017-07-06T09:02:56.491Z,71776
2017-07-06T09:04:06.762Z,76544
2017-07-06T09:05:17.047Z,75616
2017-07-06T09:06:27.023Z,33792
2017-07-06T09:07:37.304Z,31392
2017-07-06T09:08:47.853Z,34304
2017-07-06T09:09:57.814Z,47552
2017-07-06T09:11:07.478Z,35360
2017-07-06T09:12:17.161Z,37824
2017-07-06T09:13:27.140Z,44768
2017-07-06T09:14:37.366Z,84992
2017-07-06T09:15:47.672Z,84800
2017-07-06T09:16:57.636Z,82784
2017-07-06T09:18:07.934Z,39168
2017-07-06T09:19:17.879Z,36096
2017-07-06T09:20:28.087Z,34464
2017-07-06T09:21:38.374Z,39232
2017-07-06T09:22:48.342Z,51840
2017-07-06T09:23:57.987Z,33184
2017-07-06T09:25:07.988Z,33440
2017-07-06T09:26:18.207Z,35712
2017-07-06T09:27:27.857Z,34720
2017-07-06T09:28:37.500Z,33632
2017-07-06T09:29:47.163Z,31136
2017-07-06T09:30:57.117Z,30368
2017-07-06T09:32:07.659Z,31808
2017-07-06T09:33:18.201Z,33216
2017-07-06T09:34:28.513Z,35840
2017-07-06T09:35:38.794Z,39168
2017-07-06T09:36:48.753Z,83712
2017-07-06T09:37:59.300Z,82688
2017-07-06T09:39:09.294Z,78784
2017-07-06T09:40:19.243Z,59840
2017-07-06T09:41:29.558Z,53920
2017-07-06T09:42:39.529Z,44096
2017-07-06T09:43:49.769Z,36544
2017-07-06T09:44:59.744Z,36544
2017-07-06T09:46:10.048Z,37856
2017-07-06T09:47:20.333Z,84384
2017-07-06T09:48:30.651Z,48704
2017-07-06T09:49:41.191Z,79200
2017-07-06T09:50:51.503Z,77344
2017-07-06T09:52:01.461Z,82432
2017-07-06T09:53:11.750Z,82464
2017-07-06T09:54:22.047Z,83424
2017-07-06T09:55:32.602Z,89344
2017-07-06T09:56:42.578Z,87040
2017-07-06T09:57:52.571Z,95328
2017-07-06T09:59:02.220Z,101152
2017-07-06T10:00:12.187Z,54656
2017-07-06T10:01:21.826Z,102688
2017-07-06T10:02:32.132Z,56832
2017-07-06T10:03:41.786Z,39552
2017-07-06T10:04:51.753Z,36672
2017-07-06T10:06:02.046Z,35328
2017-07-06T10:07:12.296Z,34848
2017-07-06T10:08:21.940Z,35488
2017-07-06T10:09:31.937Z,38176
2017-07-06T10:10:41.925Z,45984
2017-07-06T10:11:51.592Z,104800
2017-07-06T10:13:01.507Z,45088
2017-07-06T10:14:11.481Z,46240
2017-07-06T10:15:21.167Z,39680
2017-07-06T10:16:31.246Z,34560
2017-07-06T10:17:41.236Z,30848
2017-07-06T10:18:51.467Z,29824
2017-07-06T10:20:01.793Z,29920
2017-07-06T10:21:12.074Z,32448
2017-07-06T10:22:22.367Z,35328
2017-07-06T10:23:32.660Z,37344
2017-07-06T10:24:43.180Z,37504
2017-07-06T10:25:52.735Z,47168
2017-07-06T10:27:03.026Z,84736
2017-07-06T10:28:12.668Z,94496
2017-07-06T10:29:22.955Z,61632
2017-07-06T10:30:32.928Z,45056
2017-07-06T10:31:43.197Z,106400
2017-07-06T10:32:53.480Z,41024
2017-07-06T10:34:03.763Z,67840
2017-07-06T10:35:13.455Z,36288
2017-07-06T10:36:23.998Z,48448
2017-07-06T10:37:33.965Z,125376
2017-07-06T10:38:43.946Z,118176
2017-07-06T10:39:53.940Z,85760
2017-07-06T10:41:03.923Z,29568
2017-07-06T10:42:14.473Z,26752
2017-07-06T10:43:24.440Z,23392
2017-07-06T10:44:34.740Z,25472
2017-07-06T10:45:44.734Z,23488
2017-07-06T10:46:54.758Z,22976
2017-07-06T10:48:05.290Z,31936
2017-07-06T10:49:15.256Z,28224
2017-07-06T10:50:25.233Z,57152
2017-07-06T10:51:35.569Z,55296
2017-07-06T10:52:45.866Z,125792
2017-07-06T10:53:56.434Z,43808
2017-07-06T10:55:06.739Z,47552
2017-07-06T10:56:17.047Z,132096
2017-07-06T10:57:27.085Z,133984
2017-07-06T10:58:37.642Z,136096
2017-07-06T10:59:47.884Z,100032
2017-07-06T11:00:56.909Z,128800
2017-07-06T11:02:06.890Z,134912
2017-07-06T11:03:16.862Z,138016
2017-07-06T11:04:27.221Z,140992
2017-07-06T11:05:37.499Z,134144
2017-07-06T11:06:47.803Z,120384
2017-07-06T11:07:57.817Z,40384
2017-07-06T11:09:08.112Z,136032
2017-07-06T11:10:18.411Z,131232
2017-07-06T11:11:28.624Z,38752
2017-07-06T11:12:38.903Z,33088
2017-07-06T11:13:48.549Z,33312
2017-07-06T11:14:58.513Z,34208
2017-07-06T11:16:08.486Z,35264
2017-07-06T11:17:19.044Z,36448
2017-07-06T11:18:29.023Z,33248
2017-07-06T11:19:39.310Z,35616
2017-07-06T11:20:49.584Z,60768
2017-07-06T11:21:59.870Z,40256
2017-07-06T11:23:10.083Z,41824
2017-07-06T11:24:19.412Z,125504
2017-07-06T11:25:29.711Z,65600
2017-07-06T11:26:39.063Z,140128
2017-07-06T11:27:49.355Z,42080
2017-07-06T11:28:59.921Z,29888
2017-07-06T11:30:10.219Z,28512
2017-07-06T11:31:19.864Z,26976
2017-07-06T11:32:30.127Z,25440
2017-07-06T11:33:40.428Z,24640
2017-07-06T11:34:50.646Z,25248
2017-07-06T11:36:00.925Z,25984
2017-07-06T11:37:10.893Z,28960
2017-07-06T11:38:20.877Z,28352
2017-07-06T11:39:31.163Z,32416
2017-07-06T11:40:41.725Z,38784
2017-07-06T11:41:52.028Z,136448
2017-07-06T11:43:02.314Z,55808
2017-07-06T11:44:12.284Z,60192
2017-07-06T11:45:22.592Z,32704
2017-07-06T11:46:33.152Z,31520
2017-07-06T11:47:43.100Z,32768
2017-07-06T11:48:52.747Z,30624
2017-07-06T11:50:02.708Z,30464
2017-07-06T11:51:12.384Z,32224
2017-07-06T11:52:22.505Z,65056
2017-07-06T11:53:32.504Z,136032
2017-07-06T11:54:42.789Z,32544
2017-07-06T11:55:53.071Z,34496
2017-07-06T11:57:03.364Z,41056
2017-07-06T11:58:13.909Z,36704
2017-07-06T11:59:23.868Z,36192
2017-07-06T12:00:33.855Z,38592
2017-07-06T12:01:43.506Z,57600
2017-07-06T12:02:53.836Z,37472
2017-07-06T12:04:04.429Z,36544
2017-07-06T12:05:13.812Z,136128
2017-07-06T12:06:24.106Z,41792
2017-07-06T12:07:34.420Z,101312
2017-07-06T12:08:44.087Z,128704
2017-07-06T12:09:54.626Z,79616
2017-07-06T12:11:04.898Z,71968
2017-07-06T12:12:15.196Z,129824
2017-07-06T12:13:25.169Z,130784
2017-07-06T12:14:34.823Z,44096
2017-07-06T12:15:45.050Z,141920
2017-07-06T12:16:54.709Z,48256
2017-07-06T12:18:05.011Z,42144
2017-07-06T12:19:14.986Z,39328
2017-07-06T12:20:25.291Z,42848
2017-07-06T12:21:35.866Z,37632
2017-07-06T12:22:46.142Z,34016
2017-07-06T12:23:56.442Z,32832
2017-07-06T12:25:06.731Z,33792
2017-07-06T12:26:16.379Z,38048
2017-07-06T12:27:26.661Z,38400
2017-07-06T12:28:36.981Z,34656
2017-07-06T12:29:47.263Z,35008
2017-07-06T12:30:57.219Z,34176
2017-07-06T12:32:07.527Z,67392
2017-07-06T12:33:18.106Z,119104
2017-07-06T12:34:28.391Z,37280
2017-07-06T12:35:38.703Z,39872
2017-07-06T12:36:48.673Z,135104
2017-07-06T12:37:58.958Z,110784
2017-07-06T12:39:09.198Z,128928
2017-07-06T12:40:19.496Z,37216
2017-07-06T12:41:29.474Z,51968
2017-07-06T12:42:39.758Z,40640
2017-07-06T12:43:49.712Z,35232
2017-07-06T12:44:59.930Z,34976
2017-07-06T12:46:10.208Z,36768
2017-07-06T12:47:20.179Z,39936
2017-07-06T12:48:30.153Z,148256
2017-07-06T12:49:40.457Z,141056
2017-07-06T12:50:51.036Z,138240
2017-07-06T12:52:00.378Z,125024
2017-07-06T12:53:10.650Z,142208
2017-07-06T12:54:20.970Z,91872
2017-07-06T12:55:31.259Z,135328
2017-07-06T12:56:41.824Z,122784
2017-07-06T12:57:52.146Z,129568
2017-07-06T12:59:02.469Z,127104
2017-07-06T13:00:12.475Z,128544
2017-07-06T13:01:22.172Z,118208
2017-07-06T13:02:32.735Z,123360
2017-07-06T13:03:43.044Z,99136
2017-07-06T13:04:53.297Z,97440
2017-07-06T13:06:03.289Z,55008
2017-07-06T13:07:13.566Z,57728
2017-07-06T13:08:24.113Z,86272
2017-07-06T13:09:34.418Z,102144
2017-07-06T13:10:44.762Z,89216
2017-07-06T13:11:54.735Z,113120
2017-07-06T13:13:04.735Z,44928
2017-07-06T13:14:15.292Z,39776
2017-07-06T13:15:25.603Z,50080
2017-07-06T13:16:35.562Z,110400
2017-07-06T13:17:45.548Z,45024
2017-07-06T13:18:55.850Z,144096
2017-07-06T13:20:06.390Z,140864
2017-07-06T13:21:16.687Z,92608
2017-07-06T13:22:26.966Z,126528
2017-07-06T13:23:37.253Z,133344
2017-07-06T13:24:47.231Z,85280
2017-07-06T13:25:57.760Z,32576
2017-07-06T13:27:07.730Z,29952
2017-07-06T13:28:18.014Z,28640
2017-07-06T13:29:28.319Z,28576
2017-07-06T13:30:38.594Z,29600
2017-07-06T13:31:49.120Z,33600
2017-07-06T13:32:59.120Z,118784
2017-07-06T13:34:08.815Z,143232
2017-07-06T13:35:19.120Z,146624
2017-07-06T13:36:29.444Z,144800
2017-07-06T13:37:39.979Z,44704
2017-07-06T13:38:49.651Z,59616
2017-07-06T13:39:59.614Z,39040
2017-07-06T13:41:09.898Z,79296
2017-07-06T13:42:20.199Z,41024
2017-07-06T13:43:30.494Z,41408
2017-07-06T13:44:40.815Z,61984
2017-07-06T13:45:50.812Z,144416
2017-07-06T13:47:01.111Z,147584
2017-07-06T13:48:11.414Z,137152
2017-07-06T13:49:21.977Z,131360
2017-07-06T13:50:31.968Z,134176
2017-07-06T13:51:41.948Z,134560
2017-07-06T13:52:52.269Z,132256
2017-07-06T13:54:01.950Z,34592
2017-07-06T13:55:12.230Z,31104
2017-07-06T13:56:22.557Z,30656
2017-07-06T13:57:32.534Z,32160
2017-07-06T13:58:42.828Z,34816
2017-07-06T13:59:53.110Z,98176
2017-07-06T14:01:03.642Z,109248
2017-07-06T14:02:13.939Z,102528
2017-07-06T14:03:24.219Z,129440
2017-07-06T14:04:34.499Z,132384
2017-07-06T14:05:44.818Z,130464
2017-07-06T14:06:55.370Z,127904
2017-07-06T14:08:05.673Z,117088
2017-07-06T14:09:15.966Z,113184
2017-07-06T14:10:26.263Z,97824
2017-07-06T14:11:36.547Z,36416
2017-07-06T14:12:46.488Z,102112
2017-07-06T14:13:56.770Z,33440
2017-07-06T14:15:07.054Z,44512
2017-07-06T14:16:17.342Z,64832
2017-07-06T14:17:27.614Z,110080
2017-07-06T14:18:38.162Z,104672
2017-07-06T14:19:48.436Z,110208
2017-07-06T14:20:58.761Z,112448
2017-07-06T14:22:08.720Z,115232
2017-07-06T14:23:18.997Z,117216
2017-07-06T14:24:28.888Z,113280
2017-07-06T14:25:38.855Z,117472
2017-07-06T14:26:48.823Z,115296
2017-07-06T14:27:58.785Z,111296
2017-07-06T14:29:09.084Z,112128
2017-07-06T14:30:19.619Z,111744
2017-07-06T14:31:29.573Z,108544
2017-07-06T14:32:39.851Z,100192
2017-07-06T14:33:50.148Z,97568
2017-07-06T14:35:00.113Z,105184
2017-07-06T14:36:10.672Z,106016
2017-07-06T14:37:20.951Z,97184
2017-07-06T14:38:30.928Z,87264
2017-07-06T14:39:40.585Z,94048
2017-07-06T14:40:50.653Z,97472
2017-07-06T14:42:00.879Z,103904
2017-07-06T14:43:11.175Z,110048
2017-07-06T14:44:20.841Z,116544
2017-07-06T14:45:31.110Z,114688
2017-07-06T14:46:41.370Z,111680
2017-07-06T14:47:51.882Z,110400
2017-07-06T14:49:02.160Z,117312
2017-07-06T14:50:12.119Z,119872
2017-07-06T14:51:22.412Z,112512
2017-07-06T14:52:32.684Z,111872
2017-07-06T14:53:43.295Z,113024
2017-07-06T14:54:53.576Z,106720
2017-07-06T14:56:03.848Z,104320
2017-07-06T14:57:13.506Z,100352
2017-07-06T14:58:23.156Z,99648
2017-07-06T14:59:33.683Z,104928
2017-07-06T15:00:43.637Z,104608
2017-07-06T15:01:53.911Z,105856
2017-07-06T15:03:04.190Z,102848
2017-07-06T15:04:14.145Z,107392
2017-07-06T15:05:24.719Z,108192
2017-07-06T15:06:34.681Z,103744
2017-07-06T15:07:44.990Z,103488
2017-07-06T15:08:54.955Z,106944
2017-07-06T15:10:05.233Z,102336
2017-07-06T15:11:15.756Z,101696
2017-07-06T15:12:26.019Z,101920
2017-07-06T15:13:36.010Z,96896
2017-07-06T15:14:46.286Z,98208
2017-07-06T15:15:55.939Z,91744
2017-07-06T15:17:06.153Z,89760
2017-07-06T15:18:16.445Z,98752
2017-07-06T15:19:26.797Z,95136
2017-07-06T15:20:37.103Z,92832
2017-07-06T15:21:47.109Z,100544
2017-07-06T15:22:57.636Z,97504
2017-07-06T15:24:07.918Z,92128
2017-07-06T15:25:17.876Z,41632